createdAt,value
2018-05-13T00:00:26.524Z,15.67
2018-05-13T00:02:54.052Z,14.97
2018-05-13T00:05:21.582Z,14.70
2018-05-13T00:07:49.567Z,14.70
2018-05-13T00:10:17.067Z,15.00
2018-05-13T00:12:44.576Z,16.87
2018-05-13T00:15:12.481Z,16.17
2018-05-13T00:17:40.023Z,15.10
2018-05-13T00:20:07.564Z,15.20
2018-05-13T00:22:35.119Z,15.23
2018-05-13T00:25:04.217Z,16.10
2018-05-13T00:27:32.191Z,15.00
2018-05-13T00:29:59.713Z,15.60
2018-05-13T00:32:27.315Z,15.83
2018-05-13T00:34:54.822Z,14.00
2018-05-13T00:37:23.826Z,15.70
2018-05-13T00:39:51.431Z,14.80
2018-05-13T00:42:19.723Z,16.77
2018-05-13T00:44:47.251Z,15.10
2018-05-13T00:47:15.533Z,15.13
2018-05-13T00:49:43.027Z,15.83
2018-05-13T00:52:10.546Z,15.30
2018-05-13T00:54:50.515Z,15.40
2018-05-13T00:57:18.021Z,16.50
2018-05-13T00:59:45.523Z,19.00
2018-05-13T01:02:13.036Z,15.63
2018-05-13T01:04:40.797Z,15.80
2018-05-13T01:07:08.315Z,15.87
2018-05-13T01:09:35.814Z,15.80
2018-05-13T01:12:04.696Z,17.90
2018-05-13T01:14:32.593Z,17.50
2018-05-13T01:17:00.855Z,16.20
2018-05-13T01:19:28.385Z,16.10
2018-05-13T01:21:55.878Z,15.60
2018-05-13T01:24:24.536Z,14.83
2018-05-13T01:26:53.393Z,18.50
2018-05-13T01:29:20.911Z,17.33
2018-05-13T01:31:48.420Z,17.83
2018-05-13T01:34:16.327Z,18.47
2018-05-13T01:36:45.189Z,18.07
2018-05-13T01:39:12.693Z,19.03
2018-05-13T01:41:40.206Z,20.10
2018-05-13T01:44:07.718Z,18.10
2018-05-13T01:46:35.990Z,20.43
2018-05-13T01:49:03.490Z,21.10
2018-05-13T01:51:32.505Z,20.60
2018-05-13T01:54:00.008Z,18.63
2018-05-13T01:56:28.287Z,19.27
2018-05-13T01:58:56.944Z,20.40
2018-05-13T02:01:24.842Z,21.73
2018-05-13T02:03:53.118Z,19.90
2018-05-13T02:06:21.028Z,22.00
2018-05-13T02:08:49.302Z,23.00
2018-05-13T02:11:16.870Z,20.63
2018-05-13T02:13:44.374Z,21.30
2018-05-13T02:16:12.267Z,21.03
2018-05-13T02:18:39.780Z,21.37
2018-05-13T02:21:07.300Z,20.60
2018-05-13T02:23:34.820Z,21.87
2018-05-13T02:26:03.118Z,20.13
2018-05-13T02:28:31.408Z,21.50
2018-05-13T02:30:59.676Z,24.17
2018-05-13T02:33:27.214Z,22.80
2018-05-13T02:35:55.871Z,22.70
2018-05-13T02:38:23.398Z,23.60
2018-05-13T02:40:50.906Z,22.30
2018-05-13T02:43:18.416Z,24.80
2018-05-13T02:45:45.920Z,25.10
2018-05-13T02:48:14.230Z,22.03
2018-05-13T02:50:41.751Z,24.00
2018-05-13T02:53:10.758Z,23.43
2018-05-13T02:55:39.157Z,24.50
2018-05-13T02:58:06.661Z,23.77
2018-05-13T03:00:34.555Z,24.30
2018-05-13T03:03:02.457Z,24.40
2018-05-13T03:05:30.361Z,23.27
2018-05-13T03:07:57.891Z,25.47
2018-05-13T03:10:25.833Z,25.03
2018-05-13T03:12:53.718Z,25.07
2018-05-13T03:15:22.615Z,26.10
2018-05-13T03:17:50.514Z,27.63
2018-05-13T03:20:18.011Z,26.90
2018-05-13T03:22:46.309Z,25.87
2018-05-13T03:25:14.571Z,29.47
2018-05-13T03:27:43.415Z,24.67
2018-05-13T03:30:10.935Z,26.37
2018-05-13T03:32:40.313Z,25.67
2018-05-13T03:35:07.831Z,25.10
2018-05-13T03:37:36.171Z,21.93
2018-05-13T03:40:04.103Z,21.77
2018-05-13T03:42:31.600Z,21.20
2018-05-13T03:44:59.118Z,22.50
2018-05-13T03:47:26.636Z,23.83
2018-05-13T03:49:54.151Z,21.03
2018-05-13T03:52:21.670Z,23.00
2018-05-13T03:54:49.175Z,22.07
2018-05-13T03:57:17.463Z,22.30
2018-05-13T03:59:45.721Z,22.33
2018-05-13T04:02:15.239Z,22.70
2018-05-13T04:04:42.811Z,22.20
2018-05-13T04:07:10.711Z,19.13
2018-05-13T04:09:50.025Z,21.23
2018-05-13T04:12:29.596Z,20.27
2018-05-13T04:15:08.874Z,21.00
2018-05-13T04:17:37.155Z,21.70
2018-05-13T04:20:05.417Z,22.80
2018-05-13T04:22:32.947Z,21.33
2018-05-13T04:25:01.577Z,21.03
2018-05-13T04:27:30.170Z,19.20
2018-05-13T04:29:58.457Z,20.90
2018-05-13T04:32:25.965Z,20.90
2018-05-13T04:34:54.247Z,18.80
2018-05-13T04:37:23.253Z,19.80
2018-05-13T04:39:50.769Z,22.67
2018-05-13T04:42:18.254Z,20.63
2018-05-13T04:44:45.775Z,20.30
2018-05-13T04:47:13.307Z,20.50
2018-05-13T04:49:41.311Z,19.63
2018-05-13T04:52:08.846Z,20.50
2018-05-13T04:54:36.358Z,18.63
2018-05-13T04:57:04.289Z,17.30
2018-05-13T04:59:31.789Z,18.40
2018-05-13T05:01:59.305Z,19.03
2018-05-13T05:04:26.809Z,18.60
2018-05-13T05:06:54.722Z,16.70
2018-05-13T05:09:22.224Z,16.03
2018-05-13T05:11:49.732Z,17.40
2018-05-13T05:14:17.707Z,18.57
2018-05-13T05:16:45.691Z,16.53
2018-05-13T05:19:13.603Z,18.80
2018-05-13T05:21:41.099Z,18.00
2018-05-13T05:24:09.392Z,16.40
2018-05-13T05:26:36.894Z,17.73
2018-05-13T05:29:04.409Z,17.20
2018-05-13T05:31:31.924Z,16.53
2018-05-13T05:33:59.519Z,14.90
2018-05-13T05:36:27.487Z,15.40
2018-05-13T05:38:55.757Z,15.47
2018-05-13T05:41:23.659Z,15.87
2018-05-13T05:43:51.196Z,15.53
2018-05-13T05:46:18.764Z,14.30
2018-05-13T05:48:46.275Z,14.03
2018-05-13T05:51:13.804Z,14.50
2018-05-13T05:53:41.315Z,14.80
2018-05-13T05:56:09.590Z,14.17
2018-05-13T05:58:37.500Z,14.07
2018-05-13T06:01:05.001Z,13.50
2018-05-13T06:03:33.010Z,14.33
2018-05-13T06:06:00.568Z,13.90
2018-05-13T06:08:28.142Z,12.87
2018-05-13T06:10:55.698Z,13.30
2018-05-13T06:13:23.216Z,13.80
2018-05-13T06:15:51.470Z,12.10
2018-05-13T06:18:20.470Z,12.13
2018-05-13T06:20:47.988Z,12.40
2018-05-13T06:23:15.492Z,11.10
2018-05-13T06:25:43.012Z,11.80
2018-05-13T06:28:10.519Z,11.87
2018-05-13T06:30:38.806Z,12.00
2018-05-13T06:33:07.080Z,12.40
2018-05-13T06:35:35.364Z,12.20
2018-05-13T06:38:02.879Z,11.83
2018-05-13T06:40:30.414Z,11.53
2018-05-13T06:42:57.970Z,11.47
2018-05-13T06:45:26.246Z,10.70
2018-05-13T06:47:53.764Z,10.40
2018-05-13T06:50:22.032Z,11.90
2018-05-13T06:52:49.550Z,10.87
2018-05-13T06:55:18.186Z,11.73
2018-05-13T06:57:46.462Z,12.60
2018-05-13T07:00:14.470Z,12.70
2018-05-13T07:02:42.002Z,12.37
2018-05-13T07:05:09.530Z,10.50
2018-05-13T07:07:38.570Z,13.00
2018-05-13T07:10:06.883Z,11.37
2018-05-13T07:12:34.389Z,9.47
2018-05-13T07:15:02.679Z,10.20
2018-05-13T07:17:30.194Z,12.50
2018-05-13T07:19:58.112Z,10.17
2018-05-13T07:22:25.673Z,11.43
2018-05-13T07:24:53.189Z,9.93
2018-05-13T07:27:22.237Z,10.10
2018-05-13T07:29:49.865Z,11.00
2018-05-13T07:32:17.308Z,12.17
2018-05-13T07:34:44.814Z,10.77
2018-05-13T07:37:12.335Z,9.73
2018-05-13T07:39:40.607Z,9.97
2018-05-13T07:42:08.140Z,11.23
2018-05-13T07:44:35.658Z,9.50
2018-05-13T07:47:03.216Z,9.53
2018-05-13T07:49:30.736Z,8.50
2018-05-13T07:51:58.264Z,7.70
2018-05-13T07:54:26.527Z,8.37
2018-05-13T07:56:55.223Z,9.20
2018-05-13T07:59:22.722Z,9.80
2018-05-13T08:01:50.680Z,8.60
2018-05-13T08:04:18.214Z,9.57
2018-05-13T08:06:45.737Z,9.20
2018-05-13T08:09:14.516Z,9.43
2018-05-13T08:11:42.798Z,7.73
2018-05-13T08:14:11.077Z,7.60
2018-05-13T08:16:38.602Z,9.63
2018-05-13T08:19:06.109Z,8.30
2018-05-13T08:21:33.606Z,8.47
2018-05-13T08:24:01.109Z,7.77
2018-05-13T08:26:29.389Z,7.53
2018-05-13T08:28:56.898Z,7.67
2018-05-13T08:31:25.150Z,7.70
2018-05-13T08:33:53.101Z,7.40
2018-05-13T08:36:21.015Z,6.80
2018-05-13T08:38:48.517Z,7.93
2018-05-13T08:41:16.798Z,8.03
2018-05-13T08:43:44.687Z,7.60
2018-05-13T08:46:13.393Z,7.60
2018-05-13T08:48:40.895Z,8.10
2018-05-13T08:51:09.905Z,7.80
2018-05-13T08:53:38.142Z,7.63
2018-05-13T08:56:05.634Z,8.10
2018-05-13T08:58:33.910Z,9.23
2018-05-13T09:01:02.970Z,7.40
2018-05-13T09:03:30.489Z,6.93
2018-05-13T09:05:57.998Z,7.73
2018-05-13T09:08:26.363Z,7.00
2018-05-13T09:10:54.186Z,7.90
2018-05-13T09:13:21.706Z,7.00
2018-05-13T09:15:49.198Z,7.77
2018-05-13T09:18:16.820Z,7.63
2018-05-13T09:20:44.326Z,6.47
2018-05-13T09:23:11.866Z,7.57
2018-05-13T09:25:40.130Z,7.00
2018-05-13T09:28:08.396Z,6.67
2018-05-13T09:30:36.679Z,6.60
2018-05-13T09:33:05.019Z,5.50
2018-05-13T09:35:32.636Z,6.00
2018-05-13T09:38:00.908Z,6.73
2018-05-13T09:40:29.192Z,5.90
2018-05-13T09:42:56.771Z,7.07
2018-05-13T09:45:24.292Z,6.53
2018-05-13T09:47:52.592Z,7.00
2018-05-13T09:50:21.082Z,7.00
2018-05-13T09:52:48.988Z,7.20
2018-05-13T09:55:16.515Z,7.20
2018-05-13T09:57:44.537Z,6.93
2018-05-13T10:00:12.721Z,5.20
2018-05-13T10:02:41.014Z,6.40
2018-05-13T10:05:09.290Z,6.90
2018-05-13T10:07:37.566Z,6.33
2018-05-13T10:10:06.580Z,6.10
2018-05-13T10:12:34.143Z,6.50
2018-05-13T10:15:01.660Z,7.03
2018-05-13T10:17:29.942Z,5.90
2018-05-13T10:19:58.210Z,5.20
2018-05-13T10:22:25.701Z,5.27
2018-05-13T10:24:53.226Z,6.37
2018-05-13T10:27:21.217Z,5.70
2018-05-13T10:29:48.685Z,5.43
2018-05-13T10:32:16.197Z,5.13
2018-05-13T10:34:45.237Z,6.37
2018-05-13T10:37:12.754Z,5.03
2018-05-13T10:39:40.364Z,5.87
2018-05-13T10:42:07.918Z,5.50
2018-05-13T10:44:35.420Z,5.30
2018-05-13T10:47:02.937Z,5.10
2018-05-13T10:49:30.449Z,5.20
2018-05-13T10:51:57.955Z,5.33
2018-05-13T10:54:25.463Z,4.93
2018-05-13T10:56:52.970Z,5.80
2018-05-13T10:59:20.459Z,4.27
2018-05-13T11:01:47.982Z,4.83
2018-05-13T11:04:17.088Z,5.20
2018-05-13T11:06:44.986Z,4.83
2018-05-13T11:09:13.780Z,5.40
2018-05-13T11:11:41.291Z,4.73
2018-05-13T11:14:09.577Z,4.63
2018-05-13T11:16:37.072Z,4.80
2018-05-13T11:19:04.591Z,4.77
2018-05-13T11:21:32.848Z,4.50
2018-05-13T11:24:01.129Z,5.53
2018-05-13T11:26:29.391Z,4.67
2018-05-13T11:28:56.923Z,5.30
2018-05-13T11:31:25.193Z,4.70
2018-05-13T11:33:52.822Z,4.57
2018-05-13T11:36:20.996Z,3.70
2018-05-13T11:38:49.295Z,4.83
2018-05-13T11:41:16.818Z,4.13
2018-05-13T11:43:45.087Z,4.63
2018-05-13T11:46:13.364Z,4.37
2018-05-13T11:48:41.627Z,3.77
2018-05-13T11:51:09.152Z,4.90
2018-05-13T11:53:36.651Z,3.87
2018-05-13T11:56:04.573Z,3.83
2018-05-13T11:58:32.079Z,4.00
2018-05-13T12:00:59.619Z,4.40
2018-05-13T12:03:27.140Z,4.20
2018-05-13T12:05:54.647Z,4.07
2018-05-13T12:08:22.361Z,4.10
2018-05-13T12:10:49.933Z,3.73
2018-05-13T12:13:17.893Z,4.27
2018-05-13T12:15:45.405Z,4.30
2018-05-13T12:18:12.911Z,4.50
2018-05-13T12:20:40.418Z,4.40
2018-05-13T12:23:07.952Z,3.97
2018-05-13T12:25:36.228Z,3.80
2018-05-13T12:28:03.758Z,3.80
2018-05-13T12:30:31.288Z,3.50
2018-05-13T12:32:59.541Z,3.57
2018-05-13T12:35:27.058Z,3.83
2018-05-13T12:37:54.551Z,3.80
2018-05-13T12:40:22.074Z,4.03
2018-05-13T12:42:49.576Z,3.87
2018-05-13T12:45:17.862Z,4.03
2018-05-13T12:47:45.922Z,3.67
2018-05-13T12:50:13.504Z,4.60
2018-05-13T12:52:40.972Z,4.20
2018-05-13T12:55:09.258Z,4.90
2018-05-13T12:57:36.766Z,4.43
2018-05-13T13:00:04.309Z,4.73
2018-05-13T13:02:32.165Z,4.67
2018-05-13T13:04:59.651Z,4.40
2018-05-13T13:07:28.185Z,4.20
2018-05-13T13:09:55.698Z,4.53
2018-05-13T13:12:23.212Z,3.50
2018-05-13T13:14:51.118Z,4.40
2018-05-13T13:17:19.059Z,3.87
2018-05-13T13:19:46.568Z,4.20
2018-05-13T13:22:15.577Z,4.90
2018-05-13T13:24:43.859Z,4.20
2018-05-13T13:27:12.204Z,4.00
2018-05-13T13:29:39.695Z,3.77
2018-05-13T13:32:07.924Z,4.20
2018-05-13T13:34:35.461Z,4.07
2018-05-13T13:37:03.705Z,3.60
2018-05-13T13:39:32.557Z,3.60
2018-05-13T13:42:00.080Z,4.13
2018-05-13T13:44:27.692Z,4.37
2018-05-13T13:46:55.208Z,3.90
2018-05-13T13:49:23.146Z,3.47
2018-05-13T13:51:51.458Z,3.80
2018-05-13T13:54:18.971Z,4.30
2018-05-13T13:56:46.894Z,4.03
2018-05-13T13:59:14.418Z,3.47
2018-05-13T14:01:41.946Z,3.50
2018-05-13T14:04:09.845Z,3.40
2018-05-13T14:06:38.341Z,4.10
2018-05-13T14:09:06.296Z,3.67
2018-05-13T14:11:33.832Z,3.80
2018-05-13T14:14:01.746Z,3.60
2018-05-13T14:16:29.274Z,3.67
2018-05-13T14:18:57.541Z,3.50
2018-05-13T14:21:25.860Z,4.13
2018-05-13T14:23:53.388Z,3.80
2018-05-13T14:26:21.643Z,3.40
2018-05-13T14:28:49.150Z,4.10
2018-05-13T14:31:16.653Z,3.70
2018-05-13T14:33:44.697Z,3.27
2018-05-13T14:36:12.209Z,3.60
2018-05-13T14:38:40.490Z,3.37
2018-05-13T14:41:08.832Z,3.30
2018-05-13T14:43:36.315Z,4.00
2018-05-13T14:46:03.858Z,4.40
2018-05-13T14:48:31.376Z,3.87
2018-05-13T14:50:58.874Z,3.30
2018-05-13T14:53:27.183Z,3.60
2018-05-13T14:55:55.091Z,4.00
2018-05-13T14:58:23.744Z,4.77
2018-05-13T15:00:51.276Z,4.97
2018-05-13T15:03:19.531Z,4.57
2018-05-13T15:05:47.073Z,4.43
2018-05-13T15:08:14.605Z,3.77
2018-05-13T15:10:42.110Z,4.87
2018-05-13T15:13:09.939Z,4.03
2018-05-13T15:15:37.475Z,3.83
2018-05-13T15:18:05.773Z,4.20
2018-05-13T15:20:34.242Z,4.37
2018-05-13T15:23:01.816Z,3.93
2018-05-13T15:25:29.316Z,4.47
2018-05-13T15:27:56.852Z,4.03
2018-05-13T15:30:24.395Z,4.10
2018-05-13T15:32:52.284Z,4.77
2018-05-13T15:35:19.773Z,4.07
2018-05-13T15:37:48.071Z,4.60
2018-05-13T15:40:15.986Z,4.33
2018-05-13T15:42:43.710Z,4.30
2018-05-13T15:45:11.136Z,4.90
2018-05-13T15:47:40.256Z,4.60
2018-05-13T15:50:07.799Z,3.97
2018-05-13T15:52:36.064Z,4.40
2018-05-13T15:55:03.684Z,4.10
2018-05-13T15:57:31.921Z,5.07
2018-05-13T15:59:59.827Z,4.30
2018-05-13T16:02:27.329Z,4.50
2018-05-13T16:04:55.633Z,4.53
2018-05-13T16:07:23.941Z,4.60
2018-05-13T16:09:51.450Z,4.80
2018-05-13T16:12:19.015Z,5.33
2018-05-13T16:14:46.597Z,6.03
2018-05-13T16:17:14.919Z,6.47
2018-05-13T16:19:42.428Z,6.53
2018-05-13T16:22:10.339Z,7.13
2018-05-13T16:24:39.414Z,7.17
2018-05-13T16:27:08.067Z,7.27
2018-05-13T16:29:36.360Z,7.60
2018-05-13T16:32:04.261Z,7.20
2018-05-13T16:34:31.901Z,7.00
2018-05-13T16:36:59.413Z,6.97
2018-05-13T16:39:28.487Z,7.27
2018-05-13T16:41:56.387Z,7.20
2018-05-13T16:44:24.671Z,6.70
2018-05-13T16:46:52.926Z,8.13
2018-05-13T16:49:20.451Z,7.00
2018-05-13T16:51:48.333Z,7.30
2018-05-13T16:54:15.867Z,6.30
2018-05-13T16:56:44.189Z,6.77
2018-05-13T16:59:12.554Z,6.93
2018-05-13T17:01:41.626Z,6.60
2018-05-13T17:04:09.895Z,7.37
2018-05-13T17:06:37.407Z,7.17
2018-05-13T17:09:05.702Z,6.27
2018-05-13T17:11:33.293Z,7.00
2018-05-13T17:14:00.847Z,6.83
2018-05-13T17:16:29.194Z,7.60
2018-05-13T17:18:58.321Z,7.40
2018-05-13T17:21:25.849Z,7.50
2018-05-13T17:23:54.981Z,6.87
2018-05-13T17:26:22.885Z,7.80
2018-05-13T17:28:51.104Z,7.00
2018-05-13T17:31:18.626Z,7.67
2018-05-13T17:33:46.556Z,7.27
2018-05-13T17:36:14.074Z,8.47
2018-05-13T17:38:42.393Z,7.40
2018-05-13T17:41:09.968Z,8.50
2018-05-13T17:43:39.029Z,7.83
2018-05-13T17:46:07.353Z,8.23
2018-05-13T17:48:35.288Z,7.50
2018-05-13T17:51:02.855Z,8.43
2018-05-13T17:53:31.786Z,8.87
2018-05-13T17:55:59.702Z,8.60
2018-05-13T17:58:28.046Z,8.50
2018-05-13T18:00:56.522Z,8.20
2018-05-13T18:03:24.225Z,8.57
2018-05-13T18:05:53.670Z,7.50
2018-05-13T18:08:23.172Z,8.77
2018-05-13T18:10:50.685Z,9.13
2018-05-13T18:13:19.014Z,9.93
2018-05-13T18:15:46.530Z,8.87
2018-05-13T18:18:14.089Z,9.00
2018-05-13T18:20:41.602Z,8.20
2018-05-13T18:23:09.169Z,8.20
2018-05-13T18:25:38.847Z,8.60
2018-05-13T18:28:06.358Z,8.60
2018-05-13T18:30:35.262Z,9.20
2018-05-13T18:33:04.284Z,8.30
2018-05-13T18:35:34.418Z,8.97
2018-05-13T18:38:04.098Z,9.80
2018-05-13T18:40:32.983Z,10.17
2018-05-13T18:43:06.159Z,8.43
2018-05-13T18:45:35.023Z,9.30
2018-05-13T18:48:02.633Z,8.03
2018-05-13T18:50:32.231Z,9.37
2018-05-13T18:53:01.722Z,8.27
2018-05-13T18:55:31.474Z,8.00
2018-05-13T18:58:02.720Z,8.57
2018-05-13T19:00:30.648Z,9.77
2018-05-13T19:02:58.304Z,8.00
2018-05-13T19:05:27.627Z,9.13
2018-05-13T19:07:56.628Z,7.80
2018-05-13T19:10:28.127Z,7.87
2018-05-13T19:12:59.778Z,8.57
2018-05-13T19:15:30.744Z,9.33
2018-05-13T19:17:59.932Z,8.20
2018-05-13T19:20:28.266Z,9.03
2018-05-13T19:22:57.051Z,7.93
2018-05-13T19:25:25.784Z,8.80
2018-05-13T19:27:55.000Z,8.60
2018-05-13T19:30:25.473Z,8.40
2018-05-13T19:32:53.022Z,8.87
2018-05-13T19:35:20.537Z,8.50
2018-05-13T19:37:48.452Z,7.90
2018-05-13T19:40:16.002Z,8.43
2018-05-13T19:42:44.735Z,8.50
2018-05-13T19:45:12.710Z,7.93
2018-05-13T19:47:41.067Z,8.70
2018-05-13T19:50:11.703Z,9.80
2018-05-13T19:52:39.253Z,9.20
2018-05-13T19:55:07.393Z,9.33
2018-05-13T19:57:34.944Z,7.60
2018-05-13T20:00:03.861Z,7.73
2018-05-13T20:02:33.034Z,7.87
2018-05-13T20:05:02.669Z,8.17
2018-05-13T20:07:31.015Z,8.87
2018-05-13T20:09:58.557Z,7.67
2018-05-13T20:12:26.548Z,7.80
2018-05-13T20:14:54.499Z,7.73
2018-05-13T20:17:22.981Z,8.40
2018-05-13T20:19:51.621Z,7.37
2018-05-13T20:22:19.577Z,8.00
2018-05-13T20:24:50.155Z,8.80
2018-05-13T20:27:17.763Z,8.30
2018-05-13T20:29:45.743Z,7.77
2018-05-13T20:32:13.277Z,8.50
2018-05-13T20:34:41.059Z,7.93
2018-05-13T20:37:09.745Z,7.43
2018-05-13T20:39:38.181Z,8.17
2018-05-13T20:42:06.129Z,8.40
2018-05-13T20:44:35.193Z,8.13
2018-05-13T20:47:02.735Z,7.10
2018-05-13T20:49:31.265Z,8.17
2018-05-13T20:51:59.859Z,8.20
2018-05-13T20:54:27.405Z,8.43
2018-05-13T20:56:55.800Z,9.23
2018-05-13T20:59:23.310Z,8.37
2018-05-13T21:01:51.313Z,8.43
2018-05-13T21:04:20.374Z,9.40
2018-05-13T21:06:47.957Z,8.07
2018-05-13T21:09:16.612Z,8.23
2018-05-13T21:11:46.480Z,7.63
2018-05-13T21:14:14.405Z,8.40
2018-05-13T21:16:41.934Z,8.50
2018-05-13T21:19:10.246Z,8.47
2018-05-13T21:21:38.524Z,8.80
2018-05-13T21:24:06.827Z,9.20
2018-05-13T21:26:34.739Z,8.33
2018-05-13T21:29:03.001Z,8.80
2018-05-13T21:31:30.943Z,8.30
2018-05-13T21:33:58.428Z,9.33
2018-05-13T21:36:26.661Z,8.20
2018-05-13T21:38:54.177Z,7.90
2018-05-13T21:41:23.002Z,8.43
2018-05-13T21:43:50.478Z,8.80
2018-05-13T21:46:17.970Z,10.03
2018-05-13T21:48:46.207Z,7.60
2018-05-13T21:51:14.046Z,8.50
2018-05-13T21:53:41.542Z,8.93
2018-05-13T21:56:09.050Z,8.03
2018-05-13T21:58:37.870Z,8.50
2018-05-13T22:01:05.767Z,9.83
2018-05-13T22:03:33.245Z,9.10
2018-05-13T22:06:01.530Z,8.70
2018-05-13T22:08:29.800Z,9.63
2018-05-13T22:10:58.645Z,8.67
2018-05-13T22:13:26.145Z,8.23
2018-05-13T22:15:54.434Z,8.53
2018-05-13T22:18:22.333Z,9.70
2018-05-13T22:20:49.824Z,9.70
2018-05-13T22:23:17.741Z,9.70
2018-05-13T22:25:45.994Z,9.73
2018-05-13T22:28:13.863Z,8.13
2018-05-13T22:30:42.190Z,8.90
2018-05-13T22:33:10.964Z,9.17
2018-05-13T22:35:38.842Z,8.00
2018-05-13T22:38:06.336Z,8.60
2018-05-13T22:40:35.195Z,8.13
2018-05-13T22:43:03.493Z,8.40
2018-05-13T22:45:31.000Z,9.73
2018-05-13T22:47:58.495Z,9.20
2018-05-13T22:50:26.009Z,9.73
2018-05-13T22:52:54.847Z,8.87
2018-05-13T22:55:22.352Z,9.03
2018-05-13T22:57:50.619Z,9.27
2018-05-13T23:00:19.639Z,9.73
2018-05-13T23:02:47.154Z,8.43
2018-05-13T23:05:14.650Z,9.77
2018-05-13T23:07:42.556Z,8.73
2018-05-13T23:10:10.822Z,9.07
2018-05-13T23:12:38.328Z,9.83
2018-05-13T23:15:06.227Z,8.87
2018-05-13T23:17:33.738Z,9.00
2018-05-13T23:20:02.578Z,8.23
2018-05-13T23:22:36.174Z,8.30
2018-05-13T23:25:03.668Z,8.23
2018-05-13T23:27:31.931Z,8.20
2018-05-13T23:29:59.488Z,9.83
2018-05-13T23:32:26.989Z,8.80
2018-05-13T23:34:55.273Z,8.57
2018-05-13T23:37:22.777Z,11.17
2018-05-13T23:39:50.285Z,9.33
2018-05-13T23:42:17.795Z,10.50
2018-05-13T23:44:46.075Z,9.80
2018-05-13T23:47:13.583Z,9.00
2018-05-13T23:49:41.099Z,11.20
2018-05-13T23:52:08.591Z,9.73
2018-05-13T23:54:37.613Z,9.60
2018-05-13T23:57:06.631Z,10.67
2018-05-13T23:59:34.141Z,10.50
